Date,TemperatureHighF,TemperatureAvgF,TemperatureLowF,DewpointHighF,DewpointAvgF,DewpointLowF,HumidityHigh,HumidityAvg,HumidityLow,PressureMaxIn,PressureMinIn,WindSpeedMaxMPH,WindSpeedAvgMPH,GustSpeedMaxMPH,PrecipitationSumIn
2013-4-1,62.0,50.4,36.9,48.2,37.5,28.6,93,63,41,29.93,29.78,19,3,19,0.01
2013-4-2,56.5,45.2,35.3,29.9,20.4,9.4,66,40,20,30.12,29.92,22,3,22,0.00
2013-4-3,58.3,46.7,32.1,27.3,19.6,14.5,63,35,18,30.23,30.08,6,0,10,0.00
2013-4-4,45.4,35.8,31.3,33.4,26.3,13.7,95,72,33,30.20,29.96,18,3,18,1.69
2013-4-5,57.6,44.7,34.4,42.3,36.4,32.4,96,75,45,30.04,29.89,13,2,13,0.00
2013-4-6,63.2,49.7,34.6,37.0,31.8,27.4,85,54,28,30.17,30.01,11,0,11,0.00
2013-4-7,66.8,53.8,39.5,42.9,37.3,31.4,79,55,35,30.15,30.00,16,1,16,0.00
2013-4-8,72.7,58.7,45.8,50.2,45.3,40.7,86,64,39,30.08,29.96,13,1,16,0.00
2013-4-9,79.8,65.1,50.4,53.5,50.0,46.0,89,61,33,30.09,29.97,8,1,10,0.00
2013-4-10,84.5,67.7,52.8,54.5,51.1,42.2,88,59,25,29.99,29.82,11,1,11,0.00
2013-4-11,75.1,64.7,55.4,58.1,52.3,47.9,84,66,39,29.83,29.62,17,1,17,0.00
2013-4-13,58.0,48.5,44.3,35.4,33.4,29.8,69,57,34,30.01,29.93,7,0,9,0.01
2013-4-14,66.6,56.9,49.9,48.8,42.9,32.9,94,64,29,30.02,29.90,11,1,13,0.02
2013-4-15,59.9,55.5,53.3,53.5,52.0,51.0,93,88,77,30.19,30.03,7,0,8,0.01
2013-4-16,75.8,64.8,55.6,56.9,54.5,52.4,91,71,47,30.20,30.10,7,0,8,0.01
2013-4-17,67.1,60.7,56.5,60.6,56.3,53.8,93,86,71,30.16,30.03,7,0,8,0.01
2013-4-18,70.8,65.0,60.9,59.1,56.5,53.0,89,75,55,30.07,29.74,13,1,15,0.01
2013-4-19,64.3,48.7,34.7,59.8,41.9,23.5,92,77,62,30.05,29.65,19,5,20,0.00
2013-4-20,58.3,45.8,34.9,31.1,27.8,21.5,79,53,26,30.33,30.10,9,1,12,0.01
2013-4-21,58.1,48.8,39.9,35.3,32.6,25.4,81,56,32,30.40,30.29,11,2,12,0.00
2013-4-22,60.9,49.1,38.2,37.0,31.6,25.9,78,52,36,30.31,30.17,8,1,8,0.00
2013-4-23,68.3,56.2,44.5,44.6,41.5,36.1,91,62,32,30.16,30.02,7,0,10,0.00
2013-4-24,67.6,55.9,39.6,55.8,47.3,34.6,87,74,51,30.15,29.95,16,1,16,0.01
2013-4-25,68.3,53.5,35.0,40.1,22.8,8.5,75,35,10,30.32,30.14,11,1,13,0.00
2013-4-26,65.2,57.2,48.9,45.4,36.5,27.3,87,49,27,30.35,30.24,7,0,10,0.00
2013-4-27,56.7,50.4,48.2,49.1,47.7,43.0,95,90,61,30.30,30.18,3,0,5,0.10
2013-4-28,50.1,49.6,47.6,49.0,48.5,46.2,96,96,95,30.16,29.96,4,0,7,0.02
2013-4-29,69.3,59.9,52.0,56.0,53.3,47.9,95,80,47,29.97,29.88,5,0,6,0.00
2013-4-30,70.9,61.4,52.8,55.2,52.6,48.7,88,74,52,30.13,29.96,9,1,9,0.01